Time;durP1;ratioP1;P1;durP2;ratioP2;P2;SDS_P1;SDS_P2;PMS_P1;PMS_P2;Temp;Humidity;BMP_temperature;BMP_pressure;BME280_temperature;BME280_humidity;BME280_pressure;Samples;Min_cycle;Max_cycle;Signal;HPM_P1;HPM_P2
2022/04/07 04:02:36;;;;;;;5.55;5.20;;;10.10;99.90;;;;;;5000597;23;20634;-67
2022/04/07 04:05:02;;;;;;;5.07;4.68;;;10.00;99.90;;;;;;4971876;28;20696;-66
2022/04/07 04:07:29;;;;;;;5.63;5.30;;;10.00;99.90;;;;;;4967797;28;20280;-67
2022/04/07 04:09:56;;;;;;;5.68;5.20;;;9.90;99.90;;;;;;4970623;28;20690;-66
2022/04/07 04:12:22;;;;;;;5.63;5.22;;;9.80;99.90;;;;;;4970650;28;20232;-66
2022/04/07 04:14:49;;;;;;;5.40;5.03;;;9.70;99.90;;;;;;4971947;28;20208;-66
2022/04/07 04:17:16;;;;;;;4.72;4.43;;;9.70;99.90;;;;;;4959467;28;20218;-66
2022/04/07 04:19:44;;;;;;;5.40;5.07;;;9.60;99.90;;;;;;4953166;29;20217;-66
2022/04/07 04:22:11;;;;;;;5.43;4.97;;;9.60;99.90;;;;;;4973845;28;20279;-66
2022/04/07 04:24:37;;;;;;;5.72;5.40;;;9.40;99.90;;;;;;4971178;28;20208;-66
2022/04/07 04:27:05;;;;;;;6.22;5.63;;;9.40;99.90;;;;;;4971497;28;20236;-65
2022/04/07 04:29:31;;;;;;;6.35;5.78;;;9.30;99.90;;;;;;4972004;28;20295;-66
2022/04/07 04:31:58;;;;;;;6.00;5.50;;;9.30;99.90;;;;;;4971832;28;20232;-66
2022/04/07 04:34:25;;;;;;;5.80;5.40;;;9.30;99.90;;;;;;4972034;28;20217;-67
2022/04/07 04:36:53;;;;;;;5.05;4.65;;;9.30;99.90;;;;;;4970554;28;20196;-67
2022/04/07 04:39:19;;;;;;;5.68;5.28;;;9.30;99.90;;;;;;4953213;29;20220;-67
2022/04/07 04:41:46;;;;;;;6.40;5.90;;;9.30;99.90;;;;;;4969798;28;20225;-67
2022/04/07 04:44:12;;;;;;;6.20;5.68;;;9.30;99.90;;;;;;4972783;28;20263;-68
2022/04/07 04:46:39;;;;;;;6.05;5.55;;;9.30;99.90;;;;;;4969869;28;20736;-65
2022/04/07 04:49:06;;;;;;;9.27;5.15;;;9.40;99.90;;;;;;4972595;28;20279;-67
2022/04/07 04:51:33;;;;;;;6.22;5.65;;;9.40;99.90;;;;;;4972027;28;20570;-67
2022/04/07 04:54:01;;;;;;;5.38;4.97;;;9.50;99.90;;;;;;4970285;28;20647;-65
2022/04/07 04:56:27;;;;;;;6.60;6.10;;;9.50;99.90;;;;;;4963372;28;20628;-65
2022/04/07 04:58:57;;;;;;;5.90;5.40;;;9.60;99.90;;;;;;4975503;28;20307;-66
2022/04/07 05:01:23;;;;;;;6.22;5.82;;;9.60;99.90;;;;;;4974793;28;20837;-67
2022/04/07 05:03:50;;;;;;;5.10;4.80;;;9.60;99.90;;;;;;4974641;28;20208;-67
2022/04/07 05:06:17;;;;;;;5.53;5.13;;;9.60;99.90;;;;;;4972976;28;20212;-67
2022/04/07 05:08:43;;;;;;;5.07;4.70;;;9.70;99.90;;;;;;4973264;28;20204;-67
2022/04/07 05:11:11;;;;;;;5.45;5.05;;;9.70;99.90;;;;;;4974608;28;20311;-67
2022/04/07 05:13:38;;;;;;;5.25;4.82;;;9.70;99.90;;;;;;4974166;28;20205;-67
2022/04/07 05:16:07;;;;;;;5.22;4.93;;;9.60;99.90;;;;;;4974207;28;20220;-66
2022/04/07 05:18:34;;;;;;;6.53;4.95;;;9.50;99.90;;;;;;4972192;28;20213;-66
2022/04/07 05:21:01;;;;;;;5.45;5.15;;;9.50;99.90;;;;;;4974113;28;20236;-66
2022/04/07 05:23:28;;;;;;;4.85;4.53;;;9.40;99.90;;;;;;4972918;28;20212;-66
2022/04/07 05:25:55;;;;;;;7.75;5.55;;;9.30;99.90;;;;;;4969284;28;20621;-67
2022/04/07 05:28:23;;;;;;;5.10;4.70;;;9.40;99.90;;;;;;4972070;28;20988;-66
2022/04/07 05:30:49;;;;;;;5.55;5.05;;;9.40;99.90;;;;;;4973180;28;20232;-68
2022/04/07 05:33:17;;;;;;;6.45;5.95;;;9.40;99.90;;;;;;4973411;28;20259;-67
2022/04/07 05:35:44;;;;;;;5.00;4.70;;;9.40;99.90;;;;;;4970966;28;20204;-67
2022/04/07 05:38:10;;;;;;;5.90;5.30;;;9.40;99.90;;;;;;4965214;28;20284;-67
2022/04/07 05:40:37;;;;;;;5.55;5.18;;;9.40;99.90;;;;;;4972818;28;20291;-67
2022/04/07 05:43:04;;;;;;;5.85;5.05;;;9.50;99.90;;;;;;4965077;28;20309;-66
2022/04/07 05:45:34;;;;;;;6.10;5.60;;;9.50;99.90;;;;;;4965061;28;20361;-65
2022/04/07 05:48:01;;;;;;;6.13;5.72;;;9.60;99.90;;;;;;4969648;28;20204;-65
2022/04/07 05:50:27;;;;;;;5.80;5.30;;;9.60;99.90;;;;;;4963286;28;20208;-67
2022/04/07 05:52:54;;;;;;;5.68;5.22;;;9.60;99.90;;;;;;4973883;28;20217;-68
2022/04/07 05:55:21;;;;;;;5.53;5.07;;;9.60;99.90;;;;;;4972482;28;20213;-67
2022/04/07 05:57:49;;;;;;;6.28;5.05;;;9.70;99.90;;;;;;4973368;28;20209;-67
2022/04/07 06:00:18;;;;;;;5.45;5.05;;;9.70;99.90;;;;;;4964568;28;20237;-68
2022/04/07 06:02:47;;;;;;;5.13;4.75;;;9.70;99.90;;;;;;4972969;28;20211;-68
2022/04/07 06:05:16;;;;;;;5.53;5.03;;;9.70;99.90;;;;;;4973831;28;20209;-67
2022/04/07 06:07:43;;;;;;;6.18;5.68;;;9.70;99.90;;;;;;4973366;28;20209;-68
2022/04/07 06:10:11;;;;;;;4.25;4.05;;;9.70;99.90;;;;;;4972956;28;20232;-67
2022/04/07 06:12:40;;;;;;;4.57;4.28;;;9.70;99.90;;;;;;4973295;28;20291;-68
2022/04/07 06:15:07;;;;;;;4.63;4.35;;;9.60;99.90;;;;;;4973568;28;20312;-67
2022/04/07 06:17:35;;;;;;;4.43;4.07;;;9.60;99.90;;;;;;4972479;28;20208;-67
2022/04/07 06:20:04;;;;;;;4.75;4.07;;;9.60;99.90;;;;;;4972932;28;20628;-67
2022/04/07 06:22:31;;;;;;;5.18;4.70;;;9.60;99.90;;;;;;4973422;28;20311;-68
2022/04/07 06:24:57;;;;;;;3.75;3.45;;;9.60;99.90;;;;;;4972685;28;20217;-67
2022/04/07 06:27:24;;;;;;;4.07;3.90;;;9.60;99.90;;;;;;4973294;28;20204;-69
2022/04/07 06:29:55;;;;;;;4.82;4.20;;;9.60;99.90;;;;;;4972390;28;20300;-69
2022/04/07 06:32:23;;;;;;;3.88;3.58;;;9.80;99.90;;;;;;4965046;28;20284;-69
2022/04/07 06:34:49;;;;;;;6.55;4.43;;;9.80;99.90;;;;;;4958770;28;20259;-68
2022/04/07 06:37:17;;;;;;;4.53;3.95;;;9.90;99.90;;;;;;4971881;28;20224;-68
2022/04/07 06:39:44;;;;;;;4.28;3.85;;;10.00;99.90;;;;;;4970671;28;20197;-68
2022/04/07 06:42:11;;;;;;;3.47;3.25;;;10.00;99.90;;;;;;4980077;28;20227;-68
2022/04/07 06:44:37;;;;;;;3.85;3.53;;;10.00;99.90;;;;;;4992354;28;20234;-67
2022/04/07 06:47:05;;;;;;;3.85;3.55;;;10.00;99.90;;;;;;4980668;28;20209;-68
2022/04/07 06:49:31;;;;;;;3.88;3.47;;;10.00;99.90;;;;;;4960754;28;20205;-67
2022/04/07 06:51:58;;;;;;;4.25;3.35;;;10.10;99.90;;;;;;4972756;28;20236;-68
2022/04/07 06:54:26;;;;;;;2.65;2.55;;;10.10;99.90;;;;;;4971434;28;20633;-67
2022/04/07 06:56:53;;;;;;;3.60;3.40;;;10.10;99.90;;;;;;4973033;28;20204;-67
2022/04/07 06:59:19;;;;;;;5.78;3.40;;;10.30;99.90;;;;;;4964326;28;20216;-67
2022/04/07 07:01:46;;;;;;;3.38;3.20;;;10.40;99.90;;;;;;4972338;28;20240;-66
2022/04/07 07:04:12;;;;;;;2.40;2.25;;;10.50;99.90;;;;;;4962518;28;20206;-68
2022/04/07 07:06:39;;;;;;;5.78;3.00;;;10.50;99.90;;;;;;4960971;28;20220;-68
2022/04/07 07:09:06;;;;;;;2.83;2.22;;;10.60;99.90;;;;;;4971294;28;20209;-68
2022/04/07 07:11:34;;;;;;;2.90;2.78;;;10.60;99.90;;;;;;4971199;28;20224;-69
2022/04/07 07:14:00;;;;;;;3.35;2.60;;;10.60;99.90;;;;;;4961993;28;20284;-67
2022/04/07 07:16:27;;;;;;;3.75;3.10;;;10.70;99.90;;;;;;4956221;28;20201;-66
2022/04/07 07:18:54;;;;;;;2.78;2.58;;;10.70;99.90;;;;;;4966124;28;20287;-67
2022/04/07 07:21:21;;;;;;;2.83;2.63;;;10.60;99.90;;;;;;4971594;28;20339;-66
2022/04/07 07:23:47;;;;;;;2.28;2.28;;;10.60;99.90;;;;;;4962053;28;20268;-67
2022/04/07 07:26:14;;;;;;;5.05;2.30;;;10.50;99.90;;;;;;4968338;28;20203;-67
2022/04/07 07:28:42;;;;;;;2.38;2.10;;;10.50;99.90;;;;;;4970761;28;20209;-67
2022/04/07 07:31:09;;;;;;;1.75;1.65;;;10.40;99.90;;;;;;4972055;28;20235;-67
2022/04/07 07:33:35;;;;;;;2.33;2.22;;;10.50;99.90;;;;;;4966557;28;20215;-66
2022/04/07 07:36:02;;;;;;;2.58;2.38;;;10.60;99.90;;;;;;4962770;28;20254;-67
2022/04/07 07:38:29;;;;;;;2.83;2.28;;;10.80;99.90;;;;;;4956073;28;20259;-67
2022/04/07 07:40:55;;;;;;;1.90;1.80;;;10.90;99.90;;;;;;4969533;28;20260;-66
2022/04/07 07:43:22;;;;;;;2.15;1.67;;;11.20;99.90;;;;;;4971542;28;20212;-66
2022/04/07 07:45:50;;;;;;;2.10;2.00;;;11.30;99.90;;;;;;4971062;28;20201;-67
2022/04/07 07:48:18;;;;;;;2.22;1.70;;;11.50;99.90;;;;;;4967564;28;20290;-67
2022/04/07 07:50:45;;;;;;;1.85;1.85;;;11.60;99.90;;;;;;4969891;28;20264;-67
2022/04/07 07:53:14;;;;;;;2.17;1.70;;;11.70;99.90;;;;;;4966889;28;20254;-66
2022/04/07 07:55:40;;;;;;;2.47;1.60;;;11.80;99.90;;;;;;4962506;28;20232;-66
2022/04/07 07:58:07;;;;;;;1.53;1.53;;;12.00;99.90;;;;;;4967988;28;20200;-67
2022/04/07 08:00:34;;;;;;;1.93;1.83;;;12.20;99.90;;;;;;4966980;28;20503;-67
2022/04/07 08:03:02;;;;;;;1.70;1.60;;;12.20;99.90;;;;;;4964208;28;20463;-67
2022/04/07 08:05:28;;;;;;;1.53;1.10;;;12.30;99.90;;;;;;4970258;28;20460;-67
2022/04/07 08:07:55;;;;;;;1.83;1.60;;;12.20;99.90;;;;;;4971215;28;20518;-67
2022/04/07 08:10:22;;;;;;;4.80;2.00;;;12.20;99.90;;;;;;4969841;28;21143;-68
2022/04/07 08:12:48;;;;;;;1.50;1.47;;;12.20;99.90;;;;;;4971423;28;20491;-65
2022/04/07 08:15:15;;;;;;;1.43;1.33;;;12.00;99.90;;;;;;4970951;28;20464;-66
2022/04/07 08:17:42;;;;;;;1.38;1.38;;;11.90;99.90;;;;;;4970927;28;20475;-65
2022/04/07 08:20:11;;;;;;;1.52;1.23;;;11.80;99.90;;;;;;4967395;28;20216;-66
2022/04/07 08:22:38;;;;;;;1.30;1.30;;;11.70;99.90;;;;;;4971730;28;20619;-66
2022/04/07 08:25:05;;;;;;;1.38;1.27;;;11.60;99.90;;;;;;4966058;28;20308;-66
2022/04/07 08:27:32;;;;;;;1.33;1.33;;;11.50;99.90;;;;;;4974032;28;20748;-66
2022/04/07 08:29:59;;;;;;;3.03;1.60;;;11.40;99.90;;;;;;4971470;28;20208;-66
2022/04/07 08:32:26;;;;;;;1.20;1.20;;;11.30;99.90;;;;;;4974472;28;20232;-66
2022/04/07 08:34:53;;;;;;;1.10;1.10;;;11.20;99.90;;;;;;4969029;28;20236;-66
2022/04/07 08:37:21;;;;;;;2.08;1.67;;;11.10;99.90;;;;;;4973894;28;20582;-67
2022/04/07 08:39:49;;;;;;;2.05;1.40;;;11.00;99.90;;;;;;4965287;28;20626;-66
2022/04/07 08:42:17;;;;;;;3.83;1.15;;;10.90;99.90;;;;;;4975452;28;20232;-66
2022/04/07 08:44:43;;;;;;;1.33;1.33;;;10.80;99.90;;;;;;4972660;28;20238;-66
2022/04/07 08:47:10;;;;;;;1.73;1.63;;;10.70;99.90;;;;;;4974381;28;20797;-67
2022/04/07 08:49:38;;;;;;;1.15;1.15;;;10.60;99.90;;;;;;4974313;28;20205;-66
2022/04/07 08:52:08;;;;;;;1.60;1.50;;;10.40;99.90;;;;;;4972767;28;20797;-66
2022/04/07 08:54:36;;;;;;;2.10;1.20;;;10.20;99.90;;;;;;4968452;28;20226;-67
2022/04/07 08:57:03;;;;;;;1.80;1.70;;;10.10;99.90;;;;;;4978356;28;20204;-67
